sensor_id;sensor_type;location;lat;lon;timestamp;P1;durP1;ratioP1;P2;durP2;ratioP2
10896;SDS011;5501;51.176;6.470;2023-08-21T00:03:50;4.57;;;2.47;;
10896;SDS011;5501;51.176;6.470;2023-08-21T00:08:52;6.32;;;2.25;;
10896;SDS011;5501;51.176;6.470;2023-08-21T00:13:54;3.58;;;1.90;;
10896;SDS011;5501;51.176;6.470;2023-08-21T00:18:55;4.30;;;2.10;;
10896;SDS011;5501;51.176;6.470;2023-08-21T00:23:57;2.97;;;1.85;;
10896;SDS011;5501;51.176;6.470;2023-08-21T00:28:58;5.95;;;1.85;;
10896;SDS011;5501;51.176;6.470;2023-08-21T00:34:00;2.67;;;1.48;;
10896;SDS011;5501;51.176;6.470;2023-08-21T00:39:01;3.42;;;1.48;;
10896;SDS011;5501;51.176;6.470;2023-08-21T00:44:03;1.95;;;1.30;;
10896;SDS011;5501;51.176;6.470;2023-08-21T00:49:05;5.45;;;1.60;;
10896;SDS011;5501;51.176;6.470;2023-08-21T00:54:07;3.80;;;1.60;;
10896;SDS011;5501;51.176;6.470;2023-08-21T00:59:09;6.00;;;1.50;;
10896;SDS011;5501;51.176;6.470;2023-08-21T01:04:10;2.85;;;1.10;;
10896;SDS011;5501;51.176;6.470;2023-08-21T01:15:25;2.53;;;1.48;;
10896;SDS011;5501;51.176;6.470;2023-08-21T01:20:26;2.80;;;1.40;;
10896;SDS011;5501;51.176;6.470;2023-08-21T01:25:28;2.45;;;1.33;;
10896;SDS011;5501;51.176;6.470;2023-08-21T01:30:30;4.78;;;1.50;;
10896;SDS011;5501;51.176;6.470;2023-08-21T01:35:34;3.20;;;1.75;;
10896;SDS011;5501;51.176;6.470;2023-08-21T01:40:37;3.42;;;1.52;;
10896;SDS011;5501;51.176;6.470;2023-08-21T01:45:38;2.53;;;1.45;;
10896;SDS011;5501;51.176;6.470;2023-08-21T01:50:40;1.92;;;1.33;;
10896;SDS011;5501;51.176;6.470;2023-08-21T01:55:41;2.85;;;1.73;;
10896;SDS011;5501;51.176;6.470;2023-08-21T02:00:45;4.68;;;1.48;;
10896;SDS011;5501;51.176;6.470;2023-08-21T02:05:48;4.85;;;1.67;;
10896;SDS011;5501;51.176;6.470;2023-08-21T02:10:50;2.75;;;1.30;;
10896;SDS011;5501;51.176;6.470;2023-08-21T02:15:52;3.33;;;1.40;;
10896;SDS011;5501;51.176;6.470;2023-08-21T02:20:54;7.70;;;2.05;;
10896;SDS011;5501;51.176;6.470;2023-08-21T02:25:56;2.47;;;1.38;;
10896;SDS011;5501;51.176;6.470;2023-08-21T02:30:57;2.80;;;1.50;;
10896;SDS011;5501;51.176;6.470;2023-08-21T02:35:59;2.45;;;1.65;;
10896;SDS011;5501;51.176;6.470;2023-08-21T02:41:04;2.63;;;1.50;;
10896;SDS011;5501;51.176;6.470;2023-08-21T02:46:05;2.67;;;1.38;;
10896;SDS011;5501;51.176;6.470;2023-08-21T02:51:07;2.75;;;1.65;;
10896;SDS011;5501;51.176;6.470;2023-08-21T02:56:08;2.75;;;1.48;;
10896;SDS011;5501;51.176;6.470;2023-08-21T03:01:12;1.98;;;1.50;;
10896;SDS011;5501;51.176;6.470;2023-08-21T03:06:13;3.78;;;1.80;;
10896;SDS011;5501;51.176;6.470;2023-08-21T03:11:17;6.50;;;1.55;;
10896;SDS011;5501;51.176;6.470;2023-08-21T03:16:18;4.47;;;1.95;;
10896;SDS011;5501;51.176;6.470;2023-08-21T03:21:20;3.97;;;1.90;;
10896;SDS011;5501;51.176;6.470;2023-08-21T03:26:24;2.95;;;1.60;;
10896;SDS011;5501;51.176;6.470;2023-08-21T03:31:27;3.97;;;1.85;;
10896;SDS011;5501;51.176;6.470;2023-08-21T03:36:29;4.30;;;1.50;;
10896;SDS011;5501;51.176;6.470;2023-08-21T03:41:36;3.38;;;1.48;;
10896;SDS011;5501;51.176;6.470;2023-08-21T03:46:37;7.90;;;1.88;;
10896;SDS011;5501;51.176;6.470;2023-08-21T03:51:39;3.88;;;1.90;;
10896;SDS011;5501;51.176;6.470;2023-08-21T03:56:41;7.50;;;1.92;;
10896;SDS011;5501;51.176;6.470;2023-08-21T04:01:42;7.25;;;1.80;;
10896;SDS011;5501;51.176;6.470;2023-08-21T04:06:44;3.05;;;1.58;;
10896;SDS011;5501;51.176;6.470;2023-08-21T04:11:46;4.68;;;1.88;;
10896;SDS011;5501;51.176;6.470;2023-08-21T04:16:47;5.47;;;1.80;;
10896;SDS011;5501;51.176;6.470;2023-08-21T04:21:49;3.60;;;1.58;;
10896;SDS011;5501;51.176;6.470;2023-08-21T04:26:51;8.15;;;1.85;;
10896;SDS011;5501;51.176;6.470;2023-08-21T04:31:52;4.05;;;1.55;;
10896;SDS011;5501;51.176;6.470;2023-08-21T04:36:54;2.03;;;1.50;;
10896;SDS011;5501;51.176;6.470;2023-08-21T04:41:57;4.97;;;1.80;;
10896;SDS011;5501;51.176;6.470;2023-08-21T04:47:18;1.45;;;1.35;;
10896;SDS011;5501;51.176;6.470;2023-08-21T04:52:21;4.30;;;1.20;;
10896;SDS011;5501;51.176;6.470;2023-08-21T04:57:23;2.40;;;1.40;;
10896;SDS011;5501;51.176;6.470;2023-08-21T05:02:25;2.42;;;1.38;;
10896;SDS011;5501;51.176;6.470;2023-08-21T05:07:27;10.15;;;2.03;;
10896;SDS011;5501;51.176;6.470;2023-08-21T05:12:31;2.78;;;1.38;;
10896;SDS011;5501;51.176;6.470;2023-08-21T05:17:33;3.25;;;1.73;;
10896;SDS011;5501;51.176;6.470;2023-08-21T05:22:35;3.90;;;1.48;;
10896;SDS011;5501;51.176;6.470;2023-08-21T05:27:37;2.03;;;1.83;;
10896;SDS011;5501;51.176;6.470;2023-08-21T05:32:39;5.18;;;1.80;;
10896;SDS011;5501;51.176;6.470;2023-08-21T05:37:41;3.42;;;1.80;;
10896;SDS011;5501;51.176;6.470;2023-08-21T05:42:43;2.20;;;1.80;;
10896;SDS011;5501;51.176;6.470;2023-08-21T05:47:45;3.45;;;2.00;;
10896;SDS011;5501;51.176;6.470;2023-08-21T05:52:46;3.28;;;1.80;;
10896;SDS011;5501;51.176;6.470;2023-08-21T05:57:48;3.13;;;1.75;;
10896;SDS011;5501;51.176;6.470;2023-08-21T06:02:52;5.55;;;1.60;;
10896;SDS011;5501;51.176;6.470;2023-08-21T06:08:16;4.60;;;1.98;;
10896;SDS011;5501;51.176;6.470;2023-08-21T06:13:19;4.93;;;1.70;;
10896;SDS011;5501;51.176;6.470;2023-08-21T06:18:23;5.43;;;2.00;;
10896;SDS011;5501;51.176;6.470;2023-08-21T06:23:25;3.53;;;1.45;;
10896;SDS011;5501;51.176;6.470;2023-08-21T06:28:27;3.55;;;1.75;;
10896;SDS011;5501;51.176;6.470;2023-08-21T06:33:30;5.75;;;1.92;;
10896;SDS011;5501;51.176;6.470;2023-08-21T06:38:32;5.18;;;1.85;;
10896;SDS011;5501;51.176;6.470;2023-08-21T06:43:37;8.13;;;1.50;;
10896;SDS011;5501;51.176;6.470;2023-08-21T06:48:42;4.15;;;2.08;;
10896;SDS011;5501;51.176;6.470;2023-08-21T06:53:44;3.53;;;1.33;;
10896;SDS011;5501;51.176;6.470;2023-08-21T06:58:46;2.25;;;1.60;;
10896;SDS011;5501;51.176;6.470;2023-08-21T07:03:47;2.15;;;1.60;;
10896;SDS011;5501;51.176;6.470;2023-08-21T07:08:49;2.50;;;1.50;;
10896;SDS011;5501;51.176;6.470;2023-08-21T07:13:50;2.97;;;1.40;;
10896;SDS011;5501;51.176;6.470;2023-08-21T07:18:52;3.90;;;1.35;;
10896;SDS011;5501;51.176;6.470;2023-08-21T07:23:53;3.38;;;1.65;;
10896;SDS011;5501;51.176;6.470;2023-08-21T07:28:55;2.50;;;1.80;;
10896;SDS011;5501;51.176;6.470;2023-08-21T07:33:57;4.03;;;1.33;;
10896;SDS011;5501;51.176;6.470;2023-08-21T07:38:58;4.40;;;1.58;;
10896;SDS011;5501;51.176;6.470;2023-08-21T07:44:00;3.17;;;1.77;;
10896;SDS011;5501;51.176;6.470;2023-08-21T07:49:02;7.43;;;1.63;;
10896;SDS011;5501;51.176;6.470;2023-08-21T07:54:03;3.92;;;1.58;;
10896;SDS011;5501;51.176;6.470;2023-08-21T07:59:05;4.07;;;1.50;;
10896;SDS011;5501;51.176;6.470;2023-08-21T08:04:06;2.55;;;1.42;;
10896;SDS011;5501;51.176;6.470;2023-08-21T08:09:08;4.10;;;1.77;;
10896;SDS011;5501;51.176;6.470;2023-08-21T08:14:10;3.50;;;1.70;;
10896;SDS011;5501;51.176;6.470;2023-08-21T08:19:12;3.08;;;1.50;;
10896;SDS011;5501;51.176;6.470;2023-08-21T08:24:13;3.00;;;1.50;;
10896;SDS011;5501;51.176;6.470;2023-08-21T08:29:15;3.58;;;1.88;;
10896;SDS011;5501;51.176;6.470;2023-08-21T08:34:17;3.38;;;1.70;;
10896;SDS011;5501;51.176;6.470;2023-08-21T08:39:21;5.68;;;2.08;;
10896;SDS011;5501;51.176;6.470;2023-08-21T08:44:24;5.85;;;1.80;;
10896;SDS011;5501;51.176;6.470;2023-08-21T08:49:27;3.00;;;1.65;;
10896;SDS011;5501;51.176;6.470;2023-08-21T08:54:29;5.38;;;1.75;;
10896;SDS011;5501;51.176;6.470;2023-08-21T08:59:32;5.70;;;2.10;;
10896;SDS011;5501;51.176;6.470;2023-08-21T09:04:34;4.10;;;2.00;;
10896;SDS011;5501;51.176;6.470;2023-08-21T09:09:39;3.60;;;1.77;;
10896;SDS011;5501;51.176;6.470;2023-08-21T09:14:42;3.45;;;1.85;;
10896;SDS011;5501;51.176;6.470;2023-08-21T09:19:44;6.13;;;1.95;;
10896;SDS011;5501;51.176;6.470;2023-08-21T09:25:02;5.55;;;1.85;;
10896;SDS011;5501;51.176;6.470;2023-08-21T09:30:09;6.28;;;2.25;;
10896;SDS011;5501;51.176;6.470;2023-08-21T09:35:13;3.58;;;1.98;;
10896;SDS011;5501;51.176;6.470;2023-08-21T09:40:16;5.65;;;1.65;;
10896;SDS011;5501;51.176;6.470;2023-08-21T09:45:24;3.28;;;1.90;;
10896;SDS011;5501;51.176;6.470;2023-08-21T09:55:31;3.38;;;2.15;;
10896;SDS011;5501;51.176;6.470;2023-08-21T10:00:35;8.23;;;1.92;;
10896;SDS011;5501;51.176;6.470;2023-08-21T10:05:41;5.78;;;1.88;;
10896;SDS011;5501;51.176;6.470;2023-08-21T10:10:43;5.88;;;2.55;;
10896;SDS011;5501;51.176;6.470;2023-08-21T10:15:45;4.20;;;1.83;;
10896;SDS011;5501;51.176;6.470;2023-08-21T10:20:49;3.47;;;1.92;;
10896;SDS011;5501;51.176;6.470;2023-08-21T10:25:58;4.15;;;2.20;;
10896;SDS011;5501;51.176;6.470;2023-08-21T10:36:36;4.38;;;1.75;;
10896;SDS011;5501;51.176;6.470;2023-08-21T10:42:00;6.45;;;2.08;;
10896;SDS011;5501;51.176;6.470;2023-08-21T10:57:39;1.95;;;1.45;;
10896;SDS011;5501;51.176;6.470;2023-08-21T11:02:45;2.33;;;1.50;;
10896;SDS011;5501;51.176;6.470;2023-08-21T11:07:48;2.13;;;1.30;;
10896;SDS011;5501;51.176;6.470;2023-08-21T11:12:53;7.82;;;1.70;;
10896;SDS011;5501;51.176;6.470;2023-08-21T11:18:01;2.78;;;1.50;;
10896;SDS011;5501;51.176;6.470;2023-08-21T11:23:04;2.47;;;1.60;;
10896;SDS011;5501;51.176;6.470;2023-08-21T11:28:08;5.05;;;1.27;;
10896;SDS011;5501;51.176;6.470;2023-08-21T11:33:10;3.80;;;1.50;;
10896;SDS011;5501;51.176;6.470;2023-08-21T11:38:18;3.00;;;1.67;;
10896;SDS011;5501;51.176;6.470;2023-08-21T11:43:39;4.25;;;1.65;;
10896;SDS011;5501;51.176;6.470;2023-08-21T11:48:42;3.05;;;1.70;;
10896;SDS011;5501;51.176;6.470;2023-08-21T11:53:44;1.48;;;1.00;;
10896;SDS011;5501;51.176;6.470;2023-08-21T11:58:48;2.45;;;1.17;;
10896;SDS011;5501;51.176;6.470;2023-08-21T12:03:51;3.40;;;1.30;;
10896;SDS011;5501;51.176;6.470;2023-08-21T12:08:57;1.88;;;1.20;;
10896;SDS011;5501;51.176;6.470;2023-08-21T12:13:59;2.95;;;1.38;;
10896;SDS011;5501;51.176;6.470;2023-08-21T12:19:00;1.95;;;1.17;;
10896;SDS011;5501;51.176;6.470;2023-08-21T12:24:04;2.10;;;1.30;;
10896;SDS011;5501;51.176;6.470;2023-08-21T12:29:07;2.75;;;1.52;;
10896;SDS011;5501;51.176;6.470;2023-08-21T12:34:08;3.13;;;1.60;;
10896;SDS011;5501;51.176;6.470;2023-08-21T12:39:10;3.63;;;1.70;;
10896;SDS011;5501;51.176;6.470;2023-08-21T12:44:12;3.88;;;1.52;;
10896;SDS011;5501;51.176;6.470;2023-08-21T12:49:13;2.70;;;1.38;;
10896;SDS011;5501;51.176;6.470;2023-08-21T12:54:15;3.25;;;1.40;;
10896;SDS011;5501;51.176;6.470;2023-08-21T12:59:16;1.73;;;1.10;;
10896;SDS011;5501;51.176;6.470;2023-08-21T13:04:20;1.75;;;1.13;;
10896;SDS011;5501;51.176;6.470;2023-08-21T13:09:22;3.03;;;1.20;;
10896;SDS011;5501;51.176;6.470;2023-08-21T13:14:26;1.95;;;1.17;;
10896;SDS011;5501;51.176;6.470;2023-08-21T13:19:31;2.55;;;1.40;;
10896;SDS011;5501;51.176;6.470;2023-08-21T13:24:33;2.78;;;1.30;;
10896;SDS011;5501;51.176;6.470;2023-08-21T13:29:34;1.35;;;1.15;;
10896;SDS011;5501;51.176;6.470;2023-08-21T13:34:36;2.22;;;1.20;;
10896;SDS011;5501;51.176;6.470;2023-08-21T13:39:37;5.10;;;1.13;;
10896;SDS011;5501;51.176;6.470;2023-08-21T13:44:39;4.00;;;1.27;;
10896;SDS011;5501;51.176;6.470;2023-08-21T13:49:40;3.40;;;1.17;;
10896;SDS011;5501;51.176;6.470;2023-08-21T13:54:42;1.35;;;1.10;;
10896;SDS011;5501;51.176;6.470;2023-08-21T13:59:43;5.32;;;1.40;;
10896;SDS011;5501;51.176;6.470;2023-08-21T14:04:45;2.88;;;1.25;;
10896;SDS011;5501;51.176;6.470;2023-08-21T14:09:47;1.27;;;0.82;;
10896;SDS011;5501;51.176;6.470;2023-08-21T14:14:49;3.58;;;1.25;;
10896;SDS011;5501;51.176;6.470;2023-08-21T14:19:50;2.42;;;1.20;;
10896;SDS011;5501;51.176;6.470;2023-08-21T14:24:52;3.67;;;1.10;;
10896;SDS011;5501;51.176;6.470;2023-08-21T14:29:53;1.85;;;1.27;;
10896;SDS011;5501;51.176;6.470;2023-08-21T14:34:55;3.75;;;1.25;;
10896;SDS011;5501;51.176;6.470;2023-08-21T14:39:56;2.40;;;1.23;;
10896;SDS011;5501;51.176;6.470;2023-08-21T14:44:58;3.42;;;1.35;;
10896;SDS011;5501;51.176;6.470;2023-08-21T14:50:00;2.63;;;1.40;;
10896;SDS011;5501;51.176;6.470;2023-08-21T14:55:01;3.83;;;1.40;;
10896;SDS011;5501;51.176;6.470;2023-08-21T15:00:03;3.95;;;1.27;;
10896;SDS011;5501;51.176;6.470;2023-08-21T15:05:05;4.00;;;1.20;;
10896;SDS011;5501;51.176;6.470;2023-08-21T15:10:08;2.80;;;1.27;;
10896;SDS011;5501;51.176;6.470;2023-08-21T15:15:11;6.68;;;1.38;;
10896;SDS011;5501;51.176;6.470;2023-08-21T15:20:12;3.58;;;1.40;;
10896;SDS011;5501;51.176;6.470;2023-08-21T15:25:16;5.25;;;1.30;;
10896;SDS011;5501;51.176;6.470;2023-08-21T15:30:18;1.48;;;1.05;;
10896;SDS011;5501;51.176;6.470;2023-08-21T15:35:20;2.45;;;1.30;;
10896;SDS011;5501;51.176;6.470;2023-08-21T15:40:22;2.78;;;1.73;;
10896;SDS011;5501;51.176;6.470;2023-08-21T15:45:23;4.85;;;1.52;;
10896;SDS011;5501;51.176;6.470;2023-08-21T15:50:25;1.35;;;1.10;;
10896;SDS011;5501;51.176;6.470;2023-08-21T15:55:27;3.30;;;1.30;;
10896;SDS011;5501;51.176;6.470;2023-08-21T16:00:28;3.05;;;1.23;;
10896;SDS011;5501;51.176;6.470;2023-08-21T16:05:30;2.63;;;1.20;;
10896;SDS011;5501;51.176;6.470;2023-08-21T16:10:31;4.10;;;1.50;;
10896;SDS011;5501;51.176;6.470;2023-08-21T16:15:33;3.67;;;1.30;;
10896;SDS011;5501;51.176;6.470;2023-08-21T16:20:35;4.35;;;1.92;;
10896;SDS011;5501;51.176;6.470;2023-08-21T16:25:37;4.75;;;1.90;;
10896;SDS011;5501;51.176;6.470;2023-08-21T16:30:38;1.45;;;1.27;;
10896;SDS011;5501;51.176;6.470;2023-08-21T16:35:40;4.05;;;1.75;;
10896;SDS011;5501;51.176;6.470;2023-08-21T16:40:41;1.58;;;1.30;;
10896;SDS011;5501;51.176;6.470;2023-08-21T16:45:43;1.85;;;1.10;;
10896;SDS011;5501;51.176;6.470;2023-08-21T16:50:45;7.07;;;1.45;;
10896;SDS011;5501;51.176;6.470;2023-08-21T16:55:46;2.70;;;1.42;;
10896;SDS011;5501;51.176;6.470;2023-08-21T17:00:48;1.83;;;1.08;;
10896;SDS011;5501;51.176;6.470;2023-08-21T17:05:50;2.55;;;1.20;;
10896;SDS011;5501;51.176;6.470;2023-08-21T17:10:51;3.35;;;1.10;;
10896;SDS011;5501;51.176;6.470;2023-08-21T17:15:53;2.05;;;1.30;;
10896;SDS011;5501;51.176;6.470;2023-08-21T17:20:56;1.35;;;1.10;;
10896;SDS011;5501;51.176;6.470;2023-08-21T17:25:58;3.80;;;1.13;;
10896;SDS011;5501;51.176;6.470;2023-08-21T17:30:59;1.77;;;1.50;;
10896;SDS011;5501;51.176;6.470;2023-08-21T17:36:01;1.80;;;1.17;;
10896;SDS011;5501;51.176;6.470;2023-08-21T17:41:04;2.63;;;1.00;;
10896;SDS011;5501;51.176;6.470;2023-08-21T17:46:05;2.35;;;1.08;;
10896;SDS011;5501;51.176;6.470;2023-08-21T17:51:07;1.67;;;1.20;;
10896;SDS011;5501;51.176;6.470;2023-08-21T17:56:09;2.92;;;1.30;;
10896;SDS011;5501;51.176;6.470;2023-08-21T18:01:12;3.33;;;1.55;;
10896;SDS011;5501;51.176;6.470;2023-08-21T18:06:14;3.97;;;2.20;;
10896;SDS011;5501;51.176;6.470;2023-08-21T18:11:16;3.90;;;2.20;;
10896;SDS011;5501;51.176;6.470;2023-08-21T18:16:18;3.47;;;1.75;;
10896;SDS011;5501;51.176;6.470;2023-08-21T18:21:20;2.92;;;2.00;;
10896;SDS011;5501;51.176;6.470;2023-08-21T18:26:22;3.10;;;1.85;;
10896;SDS011;5501;51.176;6.470;2023-08-21T18:31:24;3.35;;;1.60;;
10896;SDS011;5501;51.176;6.470;2023-08-21T18:36:28;4.00;;;1.55;;
10896;SDS011;5501;51.176;6.470;2023-08-21T18:41:35;1.55;;;1.20;;
10896;SDS011;5501;51.176;6.470;2023-08-21T18:46:36;2.05;;;1.55;;
10896;SDS011;5501;51.176;6.470;2023-08-21T18:51:38;2.58;;;1.80;;
10896;SDS011;5501;51.176;6.470;2023-08-21T18:56:40;2.42;;;1.85;;
10896;SDS011;5501;51.176;6.470;2023-08-21T19:01:41;4.18;;;1.90;;
10896;SDS011;5501;51.176;6.470;2023-08-21T19:06:43;2.22;;;1.45;;
10896;SDS011;5501;51.176;6.470;2023-08-21T19:12:04;5.88;;;1.67;;
10896;SDS011;5501;51.176;6.470;2023-08-21T19:17:06;3.80;;;1.98;;
10896;SDS011;5501;51.176;6.470;2023-08-21T19:22:08;4.15;;;1.50;;
10896;SDS011;5501;51.176;6.470;2023-08-21T19:27:09;4.63;;;2.28;;
10896;SDS011;5501;51.176;6.470;2023-08-21T19:32:14;2.85;;;1.90;;
10896;SDS011;5501;51.176;6.470;2023-08-21T19:37:16;5.32;;;2.33;;
10896;SDS011;5501;51.176;6.470;2023-08-21T19:42:17;4.07;;;2.00;;
10896;SDS011;5501;51.176;6.470;2023-08-21T19:47:19;3.70;;;1.92;;
10896;SDS011;5501;51.176;6.470;2023-08-21T19:52:20;4.25;;;2.17;;
10896;SDS011;5501;51.176;6.470;2023-08-21T19:57:22;4.07;;;2.63;;
10896;SDS011;5501;51.176;6.470;2023-08-21T20:02:24;4.82;;;2.83;;
10896;SDS011;5501;51.176;6.470;2023-08-21T20:07:25;5.15;;;3.05;;
10896;SDS011;5501;51.176;6.470;2023-08-21T20:12:27;3.92;;;2.22;;
10896;SDS011;5501;51.176;6.470;2023-08-21T20:17:28;3.22;;;2.22;;
10896;SDS011;5501;51.176;6.470;2023-08-21T20:22:30;4.82;;;2.97;;
10896;SDS011;5501;51.176;6.470;2023-08-21T20:27:37;7.40;;;2.90;;
10896;SDS011;5501;51.176;6.470;2023-08-21T20:32:40;5.03;;;3.08;;
10896;SDS011;5501;51.176;6.470;2023-08-21T20:37:41;3.40;;;2.70;;
10896;SDS011;5501;51.176;6.470;2023-08-21T20:42:43;6.10;;;3.70;;
10896;SDS011;5501;51.176;6.470;2023-08-21T20:47:46;6.18;;;3.28;;
10896;SDS011;5501;51.176;6.470;2023-08-21T20:52:47;6.97;;;2.60;;
10896;SDS011;5501;51.176;6.470;2023-08-21T20:57:50;4.45;;;2.80;;
10896;SDS011;5501;51.176;6.470;2023-08-21T21:02:53;6.35;;;3.47;;
10896;SDS011;5501;51.176;6.470;2023-08-21T21:07:54;4.95;;;2.85;;
10896;SDS011;5501;51.176;6.470;2023-08-21T21:12:56;6.43;;;3.55;;
10896;SDS011;5501;51.176;6.470;2023-08-21T21:17:57;4.47;;;2.58;;
10896;SDS011;5501;51.176;6.470;2023-08-21T21:22:59;8.13;;;4.43;;
10896;SDS011;5501;51.176;6.470;2023-08-21T21:28:01;9.95;;;4.05;;
10896;SDS011;5501;51.176;6.470;2023-08-21T21:33:03;7.65;;;4.07;;
10896;SDS011;5501;51.176;6.470;2023-08-21T21:38:05;7.22;;;3.50;;
10896;SDS011;5501;51.176;6.470;2023-08-21T21:43:06;6.63;;;3.50;;
10896;SDS011;5501;51.176;6.470;2023-08-21T21:48:08;5.65;;;3.90;;
10896;SDS011;5501;51.176;6.470;2023-08-21T21:53:09;7.00;;;3.85;;
10896;SDS011;5501;51.176;6.470;2023-08-21T21:58:11;5.90;;;4.40;;
10896;SDS011;5501;51.176;6.470;2023-08-21T22:03:14;4.18;;;3.10;;
10896;SDS011;5501;51.176;6.470;2023-08-21T22:08:15;5.13;;;3.17;;
10896;SDS011;5501;51.176;6.470;2023-08-21T22:13:17;7.47;;;2.97;;
10896;SDS011;5501;51.176;6.470;2023-08-21T22:18:19;5.03;;;3.13;;
10896;SDS011;5501;51.176;6.470;2023-08-21T22:23:20;3.40;;;3.10;;
10896;SDS011;5501;51.176;6.470;2023-08-21T22:28:22;7.18;;;3.40;;
10896;SDS011;5501;51.176;6.470;2023-08-21T22:33:23;4.97;;;3.25;;
10896;SDS011;5501;51.176;6.470;2023-08-21T22:38:25;6.97;;;2.80;;
10896;SDS011;5501;51.176;6.470;2023-08-21T22:43:26;7.25;;;3.42;;
10896;SDS011;5501;51.176;6.470;2023-08-21T22:48:28;5.15;;;3.42;;
10896;SDS011;5501;51.176;6.470;2023-08-21T22:53:29;4.78;;;2.90;;
10896;SDS011;5501;51.176;6.470;2023-08-21T22:58:31;3.65;;;2.65;;
10896;SDS011;5501;51.176;6.470;2023-08-21T23:03:33;3.95;;;2.92;;
10896;SDS011;5501;51.176;6.470;2023-08-21T23:08:34;4.47;;;2.88;;
10896;SDS011;5501;51.176;6.470;2023-08-21T23:13:36;4.43;;;2.75;;
10896;SDS011;5501;51.176;6.470;2023-08-21T23:18:37;7.22;;;3.00;;
10896;SDS011;5501;51.176;6.470;2023-08-21T23:23:39;3.75;;;2.90;;
10896;SDS011;5501;51.176;6.470;2023-08-21T23:28:40;3.85;;;2.70;;
10896;SDS011;5501;51.176;6.470;2023-08-21T23:33:42;4.90;;;2.92;;
10896;SDS011;5501;51.176;6.470;2023-08-21T23:38:43;6.47;;;2.90;;
10896;SDS011;5501;51.176;6.470;2023-08-21T23:43:48;5.97;;;3.22;;
10896;SDS011;5501;51.176;6.470;2023-08-21T23:48:49;5.70;;;3.47;;
10896;SDS011;5501;51.176;6.470;2023-08-21T23:53:52;5.57;;;3.33;;
10896;SDS011;5501;51.176;6.470;2023-08-21T23:58:53;4.57;;;2.70;;
